Time;durP1;ratioP1;P1;durP2;ratioP2;P2;SDS_P1;SDS_P2;PMS_P1;PMS_P2;Temp;Humidity;BMP_temperature;BMP_pressure;BME280_temperature;BME280_humidity;BME280_pressure;Samples;Min_cycle;Max_cycle;Signal;HPM_P1;HPM_P2
2022/06/22 00:02:31;;;;;;;12.00;1.00;;;16.20;99.90;;;;;;20879667;28;20037;-39
2022/06/22 00:12:33;;;;;;;2.45;0.65;;;16.10;99.90;;;;;;20888526;28;20063;-39
2022/06/22 00:22:56;;;;;;;2.03;1.00;;;15.90;99.90;;;;;;20885475;28;20048;-39
2022/06/22 00:33:14;;;;;;;2.10;1.02;;;15.80;99.90;;;;;;20884279;28;20037;-39
2022/06/22 00:43:17;;;;;;;2.17;0.80;;;15.60;99.90;;;;;;20887113;28;20051;-39
2022/06/22 00:53:20;;;;;;;6.78;1.30;;;15.50;99.90;;;;;;20886472;28;20523;-39
2022/06/22 01:03:26;;;;;;;3.63;1.17;;;15.50;99.90;;;;;;20887493;28;20044;-39
2022/06/22 01:13:45;;;;;;;3.90;1.42;;;15.30;99.90;;;;;;20883264;28;20327;-39
2022/06/22 01:24:07;;;;;;;3.25;1.30;;;15.20;99.90;;;;;;20883911;28;20052;-39
2022/06/22 01:34:15;;;;;;;4.60;1.88;;;15.10;99.90;;;;;;20886511;28;20472;-39
2022/06/22 01:44:37;;;;;;;3.80;1.30;;;14.90;99.90;;;;;;20881758;28;20045;-39
2022/06/22 01:55:04;;;;;;;2.08;1.15;;;14.80;99.90;;;;;;20896291;28;20569;-39
2022/06/22 02:05:25;;;;;;;5.18;1.45;;;14.80;99.90;;;;;;20890967;28;20241;-39
2022/06/22 02:15:38;;;;;;;2.65;2.03;;;14.80;99.90;;;;;;20895022;28;20123;-39
2022/06/22 02:26:02;;;;;;;3.17;1.70;;;14.70;99.90;;;;;;20895922;28;20037;-39
2022/06/22 02:36:04;;;;;;;2.03;0.95;;;14.50;99.90;;;;;;20891448;28;20044;-39
2022/06/22 02:46:07;;;;;;;3.63;1.35;;;14.30;99.90;;;;;;20889601;28;20036;-39
2022/06/22 02:56:17;;;;;;;3.83;1.60;;;14.20;99.90;;;;;;20888967;28;20357;-39
2022/06/22 03:06:22;;;;;;;4.97;1.67;;;14.10;99.90;;;;;;20886632;28;20035;-39
2022/06/22 03:16:37;;;;;;;5.80;1.50;;;14.20;99.90;;;;;;20899849;28;20044;-39
2022/06/22 03:26:45;;;;;;;3.97;1.20;;;14.20;99.90;;;;;;20886261;28;21017;-39
2022/06/22 03:36:51;;;;;;;3.05;1.35;;;14.20;99.90;;;;;;20887615;28;20502;-39
2022/06/22 03:46:59;;;;;;;2.47;1.20;;;14.00;99.90;;;;;;20892650;28;20032;-39
2022/06/22 03:57:07;;;;;;;3.25;1.73;;;14.00;99.90;;;;;;20888979;28;20040;-40
2022/06/22 04:07:13;;;;;;;3.55;1.55;;;14.00;99.90;;;;;;20888497;28;20033;-41
2022/06/22 04:17:18;;;;;;;2.13;0.85;;;14.00;99.90;;;;;;20890946;28;20040;-39
2022/06/22 04:27:32;;;;;;;3.20;1.55;;;13.90;99.90;;;;;;20886284;28;20041;-39
2022/06/22 04:37:52;;;;;;;4.45;1.63;;;14.00;99.90;;;;;;20869800;28;20648;-39
2022/06/22 04:47:57;;;;;;;8.25;1.80;;;14.10;99.90;;;;;;20874337;28;21284;-39
2022/06/22 04:58:03;;;;;;;3.25;1.48;;;14.30;99.90;;;;;;20891016;28;20038;-39
2022/06/22 05:08:10;;;;;;;2.25;0.95;;;14.60;99.90;;;;;;20883721;28;20041;-39
2022/06/22 05:18:33;;;;;;;2.17;1.10;;;14.80;99.90;;;;;;20879467;28;20055;-38
2022/06/22 05:28:46;;;;;;;1.58;0.63;;;15.20;99.90;;;;;;20909400;28;21563;-39
2022/06/22 05:38:52;;;;;;;2.30;1.00;;;15.50;99.90;;;;;;20887393;28;21455;-38
2022/06/22 05:48:55;;;;;;;1.50;0.75;;;15.90;99.90;;;;;;20897963;28;20041;-39
2022/06/22 05:59:21;;;;;;;3.50;0.70;;;16.30;99.90;;;;;;20925317;28;20064;-39
2022/06/22 06:09:25;;;;;;;1.00;0.60;;;16.80;99.90;;;;;;20925780;28;20969;-39
2022/06/22 06:19:32;;;;;;;2.20;1.23;;;17.10;99.90;;;;;;20924909;28;20032;-39
2022/06/22 06:29:47;;;;;;;2.78;0.82;;;17.60;99.90;;;;;;20920860;28;20052;-39
2022/06/22 06:39:52;;;;;;;2.85;0.70;;;17.90;99.90;;;;;;20914651;28;20415;-39
2022/06/22 06:50:11;;;;;;;2.42;0.85;;;18.20;99.90;;;;;;20925976;28;20396;-39
2022/06/22 07:00:13;;;;;;;2.47;0.80;;;18.40;99.90;;;;;;20928914;28;20051;-39
2022/06/22 07:10:21;;;;;;;1.63;0.60;;;18.50;99.90;;;;;;20928174;28;20047;-39
2022/06/22 07:20:47;;;;;;;2.45;0.60;;;18.60;99.90;;;;;;20929900;28;20040;-39
2022/06/22 07:31:04;;;;;;;1.02;0.50;;;18.90;99.90;;;;;;20913251;28;20047;-39
2022/06/22 07:41:20;;;;;;;0.73;0.30;;;18.70;99.90;;;;;;20923906;28;20040;-39
2022/06/22 07:51:32;;;;;;;1.65;0.60;;;18.80;99.90;;;;;;20928632;28;20040;-39
2022/06/22 08:01:39;;;;;;;1.45;0.50;;;18.90;99.90;;;;;;20888512;28;20300;-39
2022/06/22 08:11:50;;;;;;;1.03;0.43;;;19.00;99.90;;;;;;20879541;28;20041;-39
2022/06/22 08:21:53;;;;;;;0.95;0.35;;;19.20;99.90;;;;;;20887041;28;20052;-39
2022/06/22 08:31:59;;;;;;;2.33;0.68;;;19.20;99.90;;;;;;20890105;28;20033;-39
2022/06/22 08:42:19;;;;;;;1.35;0.40;;;19.40;99.90;;;;;;20888954;28;20389;-39
2022/06/22 08:52:37;;;;;;;0.85;0.40;;;19.60;99.90;;;;;;20886724;28;20411;-39
2022/06/22 09:03:04;;;;;;;1.00;0.47;;;20.00;99.90;;;;;;20904453;28;20534;-39
2022/06/22 09:13:33;;;;;;;0.95;0.30;;;20.10;99.90;;;;;;20904811;28;21464;-39
2022/06/22 09:24:04;;;;;;;1.08;0.60;;;20.50;99.90;;;;;;20907722;28;20329;-39
2022/06/22 09:34:23;;;;;;;0.73;0.22;;;20.80;99.90;;;;;;20900523;28;20052;-39
2022/06/22 09:44:37;;;;;;;0.80;0.30;;;21.10;99.90;;;;;;20893295;28;20575;-39
2022/06/22 10:05:39;;;;;;;0.87;0.40;;;21.60;99.90;;;;;;20904433;28;20219;-39
2022/06/22 10:15:58;;;;;;;1.27;0.45;;;21.70;99.90;;;;;;20901715;28;20036;-39
2022/06/22 10:26:05;;;;;;;1.95;0.68;;;21.80;99.90;;;;;;20893731;28;20207;-39
2022/06/22 10:37:16;;;;;;;0.60;0.25;;;21.90;99.90;;;;;;20899536;28;20028;-39
2022/06/22 10:47:34;;;;;;;1.13;0.70;;;22.10;99.90;;;;;;20828696;28;20049;-39
2022/06/22 10:57:46;;;;;;;;;;;22.20;99.90;;;;;;20891837;28;20493;-39
2022/06/22 11:08:12;;;;;;;2.22;0.25;;;22.10;99.90;;;;;;20900601;28;19923;-39
2022/06/22 11:18:34;;;;;;;1.05;0.50;;;22.10;99.90;;;;;;20902995;28;20033;-39
2022/06/22 11:39:44;;;;;;;0.13;0.10;;;22.80;99.90;;;;;;20894302;28;20778;-39
2022/06/22 11:50:13;;;;;;;1.08;0.20;;;22.90;98.90;;;;;;20880917;28;20037;-39
2022/06/22 12:00:47;;;;;;;1.38;0.55;;;23.00;99.90;;;;;;20873133;28;20537;-39
2022/06/22 12:11:15;;;;;;;0.50;0.22;;;23.10;99.10;;;;;;20887739;28;20067;-39
2022/06/22 12:21:41;;;;;;;1.38;0.40;;;23.20;99.80;;;;;;20894601;28;20472;-39
2022/06/22 12:31:48;;;;;;;0.80;0.40;;;23.40;99.90;;;;;;20878811;28;20032;-39
2022/06/22 12:41:51;;;;;;;0.53;0.27;;;23.50;99.70;;;;;;20858732;28;20467;-39
2022/06/22 12:52:07;;;;;;;0.52;0.20;;;23.70;98.40;;;;;;20889005;28;20033;-39
2022/06/22 13:02:13;;;;;;;0.73;0.30;;;24.00;99.90;;;;;;20886176;28;20052;-39
2022/06/22 13:12:40;;;;;;;2.00;0.90;;;24.20;98.90;;;;;;20890259;28;20075;-39
2022/06/22 13:22:55;;;;;;;0.40;0.20;;;24.30;98.60;;;;;;20890362;28;22251;-39
2022/06/22 13:33:05;;;;;;;0.88;0.30;;;24.60;97.70;;;;;;20870476;28;20036;-39
2022/06/22 13:43:25;;;;;;;5.13;0.70;;;24.60;97.90;;;;;;20882201;28;20068;-39
2022/06/22 13:54:11;;;;;;;1.65;0.47;;;24.60;96.90;;;;;;20897343;28;21547;-39
2022/06/22 14:04:30;;;;;;;0.68;0.10;;;24.40;95.60;;;;;;20853311;28;20369;-39
2022/06/22 14:15:03;;;;;;;0.85;0.32;;;24.00;95.60;;;;;;20890253;28;20354;-39
2022/06/22 14:25:21;;;;;;;1.10;0.13;;;23.90;96.10;;;;;;20891872;28;20047;-39
2022/06/22 14:35:58;;;;;;;0.75;0.20;;;23.80;96.90;;;;;;20888644;28;20036;-39
2022/06/22 14:46:15;;;;;;;0.68;0.22;;;23.90;97.40;;;;;;20879279;28;20045;-39
2022/06/22 14:56:54;;;;;;;0.43;0.20;;;24.00;98.20;;;;;;20885768;28;20399;-39
2022/06/22 15:07:10;;;;;;;0.70;0.40;;;23.80;97.60;;;;;;20884164;28;20519;-39
2022/06/22 15:17:18;;;;;;;1.65;0.40;;;23.70;98.50;;;;;;20869783;28;20041;-39
2022/06/22 15:27:33;;;;;;;1.63;0.45;;;23.70;98.70;;;;;;20873592;28;20071;-39
2022/06/22 15:37:45;;;;;;;1.13;0.30;;;23.60;99.10;;;;;;20861363;28;20607;-39
2022/06/22 15:47:51;;;;;;;1.25;0.35;;;23.50;98.80;;;;;;20868838;28;20333;-39
2022/06/22 15:57:56;;;;;;;1.27;0.28;;;23.40;98.90;;;;;;20872731;28;20493;-39
2022/06/22 16:08:24;;;;;;;0.82;0.40;;;23.30;99.70;;;;;;20856710;28;20048;-39
2022/06/22 16:18:29;;;;;;;0.85;0.28;;;23.30;99.80;;;;;;20849926;28;20670;-39
2022/06/22 16:28:39;;;;;;;2.22;0.50;;;23.40;99.90;;;;;;20859965;28;20040;-39
2022/06/22 16:39:01;;;;;;;1.33;0.50;;;23.40;99.90;;;;;;20862447;28;20059;-39
2022/06/22 16:49:10;;;;;;;1.48;0.50;;;23.30;99.90;;;;;;20887562;28;20535;-39
2022/06/22 16:59:26;;;;;;;1.15;0.50;;;23.20;99.90;;;;;;20887935;28;20721;-39
2022/06/22 17:09:47;;;;;;;1.52;0.60;;;22.90;99.90;;;;;;20880519;28;20459;-39
2022/06/22 17:20:09;;;;;;;2.72;0.60;;;22.80;99.90;;;;;;20901034;28;21195;-39
2022/06/22 17:30:32;;;;;;;2.53;1.23;;;22.60;99.90;;;;;;20903300;28;20044;-39
2022/06/22 17:41:00;;;;;;;1.85;0.60;;;22.50;99.90;;;;;;20868193;28;21275;-39
2022/06/22 17:51:04;;;;;;;1.35;0.55;;;22.50;99.90;;;;;;20862869;28;20032;-39
2022/06/22 18:01:20;;;;;;;1.70;0.70;;;22.30;99.90;;;;;;20855161;28;20311;-39
2022/06/22 18:11:33;;;;;;;2.00;0.98;;;22.20;99.90;;;;;;20870844;28;20785;-39
2022/06/22 18:21:37;;;;;;;2.08;0.98;;;22.20;99.90;;;;;;20860610;28;21348;-39
2022/06/22 18:32:28;;;;;;;2.38;1.13;;;22.00;99.90;;;;;;20823965;28;20447;-39
2022/06/22 18:42:47;;;;;;;2.03;1.13;;;21.80;99.90;;;;;;20816061;28;21628;-39
2022/06/22 18:52:57;;;;;;;2.15;1.08;;;21.60;99.90;;;;;;20854280;28;21344;-39
2022/06/22 19:03:03;;;;;;;4.25;1.33;;;21.50;99.90;;;;;;20861512;28;20044;-39
2022/06/22 19:13:07;;;;;;;;;;;21.40;99.90;;;;;;20846652;28;20460;-39
2022/06/22 19:23:29;;;;;;;3.00;1.33;;;21.20;99.90;;;;;;20847154;28;19960;-39
2022/06/22 19:33:45;;;;;;;5.03;1.10;;;21.00;99.90;;;;;;20855343;28;20477;-39
2022/06/22 19:44:05;;;;;;;3.17;1.13;;;20.90;99.90;;;;;;20868187;28;21345;-39
2022/06/22 19:54:18;;;;;;;1.45;0.70;;;20.70;99.90;;;;;;20873288;28;22468;-39
2022/06/22 20:04:30;;;;;;;6.30;1.48;;;20.60;99.90;;;;;;20873585;28;20040;-39
2022/06/22 20:14:53;;;;;;;2.90;1.27;;;20.40;99.90;;;;;;20861804;28;20040;-39
2022/06/22 20:24:57;;;;;;;11.25;1.48;;;20.30;99.90;;;;;;20858555;28;20044;-39
2022/06/22 20:35:38;;;;;;;6.30;1.10;;;20.20;99.90;;;;;;20857195;28;20091;-39
2022/06/22 20:46:07;;;;;;;4.00;1.15;;;20.00;99.90;;;;;;20848445;28;20614;-39
2022/06/22 20:56:30;;;;;;;2.85;1.40;;;19.90;99.90;;;;;;20847407;28;20235;-39
2022/06/22 21:06:51;;;;;;;1.85;0.90;;;19.80;99.90;;;;;;20848297;28;21384;-39
2022/06/22 21:16:57;;;;;;;3.28;1.70;;;19.70;99.90;;;;;;20847790;28;21613;-40
2022/06/22 21:27:11;;;;;;;3.80;1.20;;;19.50;99.90;;;;;;20847855;28;20033;-39
2022/06/22 21:37:23;;;;;;;3.78;1.50;;;19.50;99.90;;;;;;20849781;28;20052;-39
2022/06/22 21:48:02;;;;;;;5.07;1.42;;;19.40;99.90;;;;;;20852234;28;20483;-40
2022/06/22 21:58:03;;;;;;;;;;;19.20;99.90;;;;;;20847672;28;20507;-40
2022/06/22 22:08:16;;;;;;;2.10;1.35;;;19.20;99.90;;;;;;20873332;28;20514;-40
2022/06/22 22:18:18;;;;;;;3.00;1.25;;;19.00;99.90;;;;;;20868118;28;20044;-40
2022/06/22 22:28:37;;;;;;;3.15;1.50;;;18.80;99.90;;;;;;20866965;28;20033;-40
2022/06/22 22:38:42;;;;;;;2.75;1.10;;;18.70;99.90;;;;;;20872930;28;22218;-40
2022/06/22 22:48:54;;;;;;;2.75;1.30;;;18.60;99.90;;;;;;20870096;28;20830;-39
2022/06/22 22:59:03;;;;;;;7.43;2.78;;;18.50;99.90;;;;;;20858751;28;21548;-39
2022/06/22 23:09:07;;;;;;;3.03;1.15;;;18.40;99.90;;;;;;20859127;28;20045;-39
2022/06/22 23:19:19;;;;;;;2.20;0.90;;;18.10;99.90;;;;;;20863108;28;20040;-40
2022/06/22 23:29:25;;;;;;;5.68;0.90;;;18.00;99.90;;;;;;20856478;28;20045;-39
2022/06/22 23:39:30;;;;;;;3.47;1.25;;;17.80;99.90;;;;;;20856149;28;21120;-39
2022/06/22 23:49:34;;;;;;;1.95;0.68;;;17.70;99.90;;;;;;20854841;28;20415;-39
2022/06/22 23:59:38;;;;;;;1.88;0.90;;;17.60;99.90;;;;;;20855935;28;20051;-39
